Overton RPC :: 100-B

liberation: 2021-09-25  07:30     latitude: 34.861244     longitude: -85.505535 59 birds
# LOFT PRING MILES ARRIVAL SPEED ToWin
1 VALHALLA LOFTS IF21-VALH-0183 107.559 2021-09-25 09:55:17.623 1302.909 00:00:00
2 VALHALLA LOFTS IF21-VALH-0146 107.559 2021-09-25 09:55:27.796 1301.390 00:00:10
3 VALHALLA LOFTS IF21-VALH-0177 107.559 2021-09-25 09:55:30.040 1301.056 00:00:12
4 VALHALLA LOFTS IF21-E-1500 107.559 2021-09-25 09:55:34.834 1300.342 00:00:17
5 VALHALLA LOFTS IF21-E-1580 107.559 2021-09-25 09:56:11.418 1294.918 00:00:54
6 VALHALLA LOFTS IF21-VALH-0198 107.559 2021-09-25 09:56:14.380 1294.481 00:00:57
7 VALHALLA LOFTS IF21-VALH-0129 107.559 2021-09-25 09:56:19.418 1293.738 00:01:02
8 VALHALLA LOFTS IF21-E-1450 107.559 2021-09-25 09:56:25.753 1292.805 00:01:08
9 VALHALLA LOFTS IF21-VALH-0145 107.559 2021-09-25 09:56:26.256 1292.731 00:01:09
10 VALHALLA LOFTS IF21-VALH-0116 107.559 2021-09-25 09:56:27.246 1292.586 00:01:10
11 VALHALLA LOFTS IF21-VALH-0172 107.559 2021-09-25 09:56:29.823 1292.207 00:01:12
12 VALHALLA LOFTS IF21-VALH-0170 107.559 2021-09-25 09:56:31.692 1291.932 00:01:14
13 VALHALLA LOFTS IF21-VALH-0151 107.559 2021-09-25 09:56:35.729 1291.339 00:01:18
14 VALHALLA LOFTS AU21-POP-0536 107.559 2021-09-25 09:56:38.627 1290.914 00:01:21
15 VALHALLA LOFTS IF21-VALH-0188 107.559 2021-09-25 09:56:41.082 1290.554 00:01:23
16 VALHALLA LOFTS IF21-VALH-0135 107.559 2021-09-25 09:56:42.248 1290.383 00:01:25
17 VALHALLA LOFTS IF21-E-1446 107.559 2021-09-25 09:56:44.178 1290.100 00:01:27
18 VALHALLA LOFTS IF21-VALH-0147 107.559 2021-09-25 09:57:05.660 1286.960 00:01:48
19 VALHALLA LOFTS IF21-VALH-0148 107.559 2021-09-25 09:57:13.820 1285.771 00:01:56
20 VALHALLA LOFTS IF21-E-1445 107.559 2021-09-25 09:57:16.142 1285.433 00:01:59
21 VALHALLA LOFTS IF21-VALH-0196 107.559 2021-09-25 09:57:35.608 1282.607 00:02:18
22 VALHALLA LOFTS IF21-VALH-0184 107.559 2021-09-25 09:57:37.516 1282.331 00:02:20
23 VALHALLA LOFTS IF21-E-1499 107.559 2021-09-25 09:57:40.296 1281.929 00:02:23
24 VALHALLA LOFTS IF21-VALH-0194 107.559 2021-09-25 09:57:40.407 1281.913 00:02:23
25 VALHALLA LOFTS IF21-VALH-0154 107.559 2021-09-25 09:57:47.831 1280.839 00:02:30
26 VALHALLA LOFTS IF21-VALH-0112 107.559 2021-09-25 09:57:58.254 1279.336 00:02:41
27 VALHALLA LOFTS IF21-VALH-0176 107.559 2021-09-25 09:57:58.367 1279.320 00:02:41
28 VALHALLA LOFTS IF21-VALH-0114 107.559 2021-09-25 09:58:02.327 1278.749 00:02:45
29 VALHALLA LOFTS IF21-E-1591 107.559 2021-09-25 09:58:14.022 1277.068 00:02:56
30 VALHALLA LOFTS AU21-ARPU-8991 107.559 2021-09-25 09:58:15.113 1276.911 00:02:57
31 VALHALLA LOFTS IF21-VALH-0102 107.559 2021-09-25 09:58:18.228 1276.464 00:03:01
32 VALHALLA LOFTS IF21-E-1574 107.559 2021-09-25 09:59:13.200 1268.627 00:03:56
33 VALHALLA LOFTS IF21-E-1592 107.559 2021-09-25 10:00:36.187 1256.976 00:05:19
34 VALHALLA LOFTS IF21-E-1415 107.559 2021-09-25 10:00:41.746 1256.203 00:05:24
35 VALHALLA LOFTS IF21-E-1412 107.559 2021-09-25 10:01:45.634 1247.389 00:06:28
36 VALHALLA LOFTS AU21-ARPU-8999 107.559 2021-09-25 10:02:33.641 1240.847 00:07:16
37 VALHALLA LOFTS IF21-VALH-0158 107.559 2021-09-25 10:05:24.420 1218.121 00:10:07
38 VALHALLA LOFTS IF21-VALH-0111 107.559 2021-09-25 10:05:45.768 1215.338 00:10:28
39 VALHALLA LOFTS IF21-E-1444 107.559 2021-09-25 10:14:27.854 1151.037 00:19:10
40 VALHALLA LOFTS IF21-VALH-0186 107.559 2021-09-25 10:25:41.044 1077.528 00:30:23
41 VALHALLA LOFTS IF21-VALH-0104 107.559 2021-09-25 10:25:44.180 1077.207 00:30:27
42 VALHALLA LOFTS IF21-VALH-0105 107.559 2021-09-25 11:23:24.595 811.039 01:28:07
43 HONEY FARM LOFT IF21-FOYS-5476 106.823 2021-09-25 11:53:34.211 713.318 01:59:16
44 MONTEJANO LOFT IF21-E-1343 103.511 2021-09-25 11:51:40.121 696.220 02:01:51
45 HONEY FARM LOFT IF21-FOYS-5486 106.823 2021-09-25 12:00:45.412 694.384 02:06:27
46 HONEY FARM LOFT IF21-FOYS-5485 106.823 2021-09-25 12:00:56.089 693.928 02:06:38
47 LET IT GO LOFT IF21-ORP-0442 109.108 2021-09-25 12:08:25.633 689.695 02:11:03
48 LET IT GO LOFT IF21-ORP-0409 109.108 2021-09-25 12:10:02.344 685.726 02:12:39
49 HONEY FARM LOFT IF21-ORP-0412 106.823 2021-09-25 12:11:15.895 668.442 02:16:58
50 MONTEJANO LOFT IF21-E-1327 103.511 2021-09-25 13:26:47.457 510.604 03:36:58
51 MONTEJANO LOFT IF21-E-1465 103.511 2021-09-25 14:20:55.832 443.333 04:31:06
HONEY FARM LOFT IF21-FOYS-5488 0 0000-00-00 00:00:00.000 0.000 00:00:00
HONEY FARM LOFT IF21-ORP-0436 0 0000-00-00 00:00:00.000 0.000 00:00:00
MONTEJANO LOFT IF21-E-1308 0 0000-00-00 00:00:00.000 0.000 00:00:00
MONTEJANO LOFT IF21-E-1309 0 0000-00-00 00:00:00.000 0.000 00:00:00
MONTEJANO LOFT IF21-E-1322 0 0000-00-00 00:00:00.000 0.000 00:00:00
MONTEJANO LOFT IF21-E-1468 0 0000-00-00 00:00:00.000 0.000 00:00:00
MONTEJANO LOFT IF21-E-1599 0 0000-00-00 00:00:00.000 0.000 00:00:00
VALHALLA LOFTS IF21-E-1413 0 0000-00-00 00:00:00.000 0.000 00:00:00